createdAt,value
2018-07-08T00:00:32.386Z,0.00
2018-07-08T00:01:32.410Z,0.00
2018-07-08T00:02:32.436Z,0.00
2018-07-08T00:03:32.460Z,0.00
2018-07-08T00:04:32.480Z,0.00
2018-07-08T00:05:32.512Z,0.00
2018-07-08T00:06:32.536Z,0.00
2018-07-08T00:07:32.556Z,0.00
2018-07-08T00:08:32.582Z,0.00
2018-07-08T00:09:32.609Z,0.00
2018-07-08T00:10:32.631Z,0.00
2018-07-08T00:11:32.656Z,0.00
2018-07-08T00:12:32.686Z,0.00
2018-07-08T00:13:32.706Z,0.00
2018-07-08T00:14:32.733Z,0.00
2018-07-08T00:15:32.760Z,0.00
2018-07-08T00:16:32.782Z,0.00
2018-07-08T00:17:32.798Z,0.00
2018-07-08T00:18:32.826Z,0.00
2018-07-08T00:19:32.852Z,0.00
2018-07-08T00:20:32.878Z,0.00
2018-07-08T00:21:32.907Z,0.00
2018-07-08T00:22:32.926Z,0.00
2018-07-08T00:23:32.952Z,0.00
2018-07-08T00:24:32.978Z,0.00
2018-07-08T00:25:33.004Z,0.00
2018-07-08T00:26:33.024Z,0.00
2018-07-08T00:27:33.050Z,0.00
2018-07-08T00:28:33.076Z,0.00
2018-07-08T00:29:33.104Z,0.00
2018-07-08T00:30:33.126Z,0.00
2018-07-08T00:31:33.152Z,0.00
2018-07-08T00:32:33.178Z,0.00
2018-07-08T00:33:33.198Z,0.00
2018-07-08T00:34:33.232Z,0.00
2018-07-08T00:35:33.245Z,0.00
2018-07-08T00:36:33.269Z,0.00
2018-07-08T00:37:33.298Z,0.00
2018-07-08T00:38:33.321Z,0.00
2018-07-08T00:39:33.343Z,0.00
2018-07-08T00:40:33.367Z,0.00
2018-07-08T00:41:33.394Z,0.00
2018-07-08T00:42:33.419Z,0.00
2018-07-08T00:43:33.442Z,0.00
2018-07-08T00:44:33.464Z,0.00
2018-07-08T00:45:33.499Z,0.00
2018-07-08T00:46:33.514Z,0.00
2018-07-08T00:47:33.548Z,0.00
2018-07-08T00:48:33.563Z,0.00
2018-07-08T00:49:33.594Z,0.00
2018-07-08T00:50:33.614Z,0.00
2018-07-08T00:51:33.640Z,0.00
2018-07-08T00:52:33.662Z,0.00
2018-07-08T00:53:33.684Z,0.00
2018-07-08T00:54:33.716Z,0.00
2018-07-08T00:55:33.735Z,0.00
2018-07-08T00:56:33.759Z,0.00
2018-07-08T00:57:33.786Z,0.00
2018-07-08T00:58:33.808Z,0.00
2018-07-08T00:59:33.836Z,0.00
2018-07-08T01:00:33.861Z,0.00
2018-07-08T01:01:33.903Z,0.00
2018-07-08T01:02:33.908Z,0.00
2018-07-08T01:03:33.930Z,0.00
2018-07-08T01:04:33.965Z,0.00
2018-07-08T01:05:33.982Z,0.00
2018-07-08T01:06:34.002Z,0.00
2018-07-08T01:07:34.033Z,0.00
2018-07-08T01:08:34.054Z,0.00
2018-07-08T01:09:34.085Z,0.00
2018-07-08T01:10:34.105Z,0.00
2018-07-08T01:11:34.124Z,0.00
2018-07-08T01:12:34.153Z,0.00
2018-07-08T01:13:34.182Z,0.00
2018-07-08T01:14:34.198Z,0.00
2018-07-08T01:15:34.223Z,0.00
2018-07-08T01:16:34.248Z,0.00
2018-07-08T01:17:34.270Z,0.00
2018-07-08T01:18:34.297Z,0.00
2018-07-08T01:19:34.322Z,0.00
2018-07-08T01:20:34.343Z,0.00
2018-07-08T01:21:34.375Z,0.00
2018-07-08T01:22:34.397Z,0.00
2018-07-08T01:23:34.420Z,0.00
2018-07-08T01:24:34.442Z,0.00
2018-07-08T01:25:34.467Z,0.00
2018-07-08T01:26:34.495Z,0.00
2018-07-08T01:27:34.512Z,0.00
2018-07-08T01:28:34.544Z,0.00
2018-07-08T01:29:34.563Z,0.00
2018-07-08T01:30:34.589Z,0.00
2018-07-08T01:31:34.618Z,0.00
2018-07-08T01:32:34.635Z,0.00
2018-07-08T01:33:34.662Z,0.00
2018-07-08T01:34:34.685Z,0.00
2018-07-08T01:35:34.712Z,0.00
2018-07-08T01:36:34.740Z,0.00
2018-07-08T01:37:34.762Z,0.00
2018-07-08T01:38:34.781Z,0.00
2018-07-08T01:39:34.811Z,0.00
2018-07-08T01:40:34.832Z,0.00
2018-07-08T01:41:34.852Z,0.00
2018-07-08T01:42:34.883Z,0.00
2018-07-08T01:43:34.908Z,0.00
2018-07-08T01:44:34.935Z,0.00
2018-07-08T01:45:34.959Z,0.00
2018-07-08T01:46:34.979Z,0.00
2018-07-08T01:47:35.006Z,0.00
2018-07-08T01:48:35.025Z,0.00
2018-07-08T01:49:35.055Z,0.00
2018-07-08T01:50:35.081Z,0.00
2018-07-08T01:51:35.103Z,0.00
2018-07-08T01:52:35.130Z,0.00
2018-07-08T01:53:35.146Z,0.00
2018-07-08T01:54:35.170Z,0.00
2018-07-08T01:55:35.198Z,0.00
2018-07-08T01:56:35.224Z,0.00
2018-07-08T01:57:35.249Z,0.00
2018-07-08T01:58:35.275Z,0.00
2018-07-08T01:59:35.296Z,0.00
2018-07-08T02:00:35.316Z,0.00
2018-07-08T02:01:35.344Z,0.00
2018-07-08T02:02:35.366Z,0.00
2018-07-08T02:03:35.400Z,0.00
2018-07-08T02:04:35.420Z,0.00
2018-07-08T02:05:35.443Z,0.00
2018-07-08T02:06:35.477Z,0.00
2018-07-08T02:07:35.494Z,4.00
2018-07-08T02:08:35.512Z,4.00
2018-07-08T02:09:35.535Z,4.00
2018-07-08T02:10:35.563Z,4.00
2018-07-08T02:11:35.589Z,4.00
2018-07-08T02:12:35.610Z,4.00
2018-07-08T02:13:35.629Z,4.00
2018-07-08T02:14:35.668Z,0.00
2018-07-08T02:15:35.681Z,0.00
2018-07-08T02:16:35.706Z,4.00
2018-07-08T02:17:35.727Z,4.00
2018-07-08T02:18:35.758Z,4.00
2018-07-08T02:19:35.783Z,4.00
2018-07-08T02:20:35.809Z,4.00
2018-07-08T02:21:35.827Z,4.00
2018-07-08T02:22:35.850Z,4.00
2018-07-08T02:23:35.877Z,8.00
2018-07-08T02:24:35.901Z,4.00
2018-07-08T02:25:35.922Z,8.00
2018-07-08T02:26:35.947Z,4.00
2018-07-08T02:27:35.967Z,8.00
2018-07-08T02:28:35.994Z,8.00
2018-07-08T02:29:36.021Z,12.00
2018-07-08T02:30:36.040Z,12.00
2018-07-08T02:31:36.067Z,12.00
2018-07-08T02:32:36.096Z,12.00
2018-07-08T02:33:36.122Z,16.00
2018-07-08T02:34:36.140Z,20.00
2018-07-08T02:35:36.162Z,20.00
2018-07-08T02:36:36.193Z,20.00
2018-07-08T02:37:36.213Z,24.00
2018-07-08T02:38:36.236Z,28.00
2018-07-08T02:39:36.260Z,32.00
2018-07-08T02:40:36.287Z,36.00
2018-07-08T02:41:36.308Z,36.00
2018-07-08T02:42:36.334Z,40.00
2018-07-08T02:43:36.356Z,44.00
2018-07-08T02:44:36.374Z,52.00
2018-07-08T02:45:36.408Z,56.00
2018-07-08T02:46:36.432Z,64.00
2018-07-08T02:47:36.452Z,68.00
2018-07-08T02:48:36.481Z,80.00
2018-07-08T02:49:36.502Z,88.00
2018-07-08T02:50:36.526Z,96.00
2018-07-08T02:51:36.554Z,104.00
2018-07-08T02:52:36.572Z,112.00
2018-07-08T02:53:36.598Z,128.00
2018-07-08T02:54:36.623Z,136.00
2018-07-08T02:55:36.648Z,148.00
2018-07-08T02:56:36.674Z,160.00
2018-07-08T02:57:36.688Z,172.00
2018-07-08T02:58:36.718Z,188.00
2018-07-08T02:59:36.740Z,204.00
2018-07-08T03:00:36.764Z,216.00
2018-07-08T03:01:36.784Z,232.00
2018-07-08T03:02:36.812Z,248.00
2018-07-08T03:03:36.840Z,264.00
2018-07-08T03:04:36.858Z,280.00
2018-07-08T03:05:36.889Z,300.00
2018-07-08T03:06:36.910Z,324.00
2018-07-08T03:07:36.940Z,344.00
2018-07-08T03:08:36.954Z,364.00
2018-07-08T03:09:36.978Z,384.00
2018-07-08T03:10:37.004Z,412.00
2018-07-08T03:11:37.029Z,428.00
2018-07-08T03:12:37.050Z,456.00
2018-07-08T03:13:37.077Z,476.00
2018-07-08T03:14:37.104Z,504.00
2018-07-08T03:15:37.124Z,532.00
2018-07-08T03:16:37.146Z,556.00
2018-07-08T03:17:37.168Z,584.00
2018-07-08T03:18:37.201Z,608.00
2018-07-08T03:19:37.220Z,640.00
2018-07-08T03:20:37.244Z,668.00
2018-07-08T03:21:37.264Z,696.00
2018-07-08T03:22:37.291Z,728.00
2018-07-08T03:23:37.317Z,752.00
2018-07-08T03:24:37.333Z,780.00
2018-07-08T03:25:37.364Z,812.00
2018-07-08T03:26:37.386Z,840.00
2018-07-08T03:27:37.411Z,872.00
2018-07-08T03:28:37.437Z,900.00
2018-07-08T03:29:37.461Z,932.00
2018-07-08T03:30:37.483Z,960.00
2018-07-08T03:31:37.507Z,984.00
2018-07-08T03:32:37.530Z,1016.00
2018-07-08T03:33:37.553Z,1040.00
2018-07-08T03:34:37.575Z,1072.00
2018-07-08T03:35:37.605Z,1104.00
2018-07-08T03:36:37.622Z,1140.00
2018-07-08T03:37:37.649Z,1176.00
2018-07-08T03:38:37.676Z,1208.00
2018-07-08T03:39:37.704Z,1240.00
2018-07-08T03:40:37.720Z,1272.00
2018-07-08T03:41:37.745Z,1304.00
2018-07-08T03:42:37.773Z,1336.00
2018-07-08T03:43:37.793Z,1368.00
2018-07-08T03:44:37.813Z,1396.00
2018-07-08T03:45:37.839Z,1428.00
2018-07-08T03:46:37.868Z,1464.00
2018-07-08T03:47:37.889Z,1496.00
2018-07-08T03:48:37.913Z,1532.00
2018-07-08T03:49:37.936Z,1560.00
2018-07-08T03:50:37.962Z,1592.00
2018-07-08T03:51:37.979Z,1628.00
2018-07-08T03:52:38.010Z,1656.00
2018-07-08T03:53:38.033Z,1688.00
2018-07-08T03:54:38.061Z,1720.00
2018-07-08T03:55:38.079Z,1748.00
2018-07-08T03:56:38.107Z,1772.00
2018-07-08T03:57:38.127Z,1804.00
2018-07-08T03:58:38.153Z,1832.00
2018-07-08T03:59:38.173Z,1864.00
2018-07-08T04:00:38.201Z,1896.00
2018-07-08T04:01:38.218Z,1928.00
2018-07-08T04:02:38.249Z,1960.00
2018-07-08T04:03:38.275Z,1988.00
2018-07-08T04:04:38.293Z,2016.00
2018-07-08T04:05:38.321Z,2044.00
2018-07-08T04:06:38.347Z,2068.00
2018-07-08T04:07:38.365Z,2092.00
2018-07-08T04:08:38.388Z,2116.00
2018-07-08T04:09:38.416Z,2140.00
2018-07-08T04:10:38.435Z,2164.00
2018-07-08T04:11:38.458Z,2188.00
2018-07-08T04:12:38.483Z,2216.00
2018-07-08T04:13:38.519Z,2240.00
2018-07-08T04:14:38.533Z,2268.00
2018-07-08T04:15:38.559Z,2288.00
2018-07-08T04:16:38.578Z,2308.00
2018-07-08T04:17:38.601Z,2336.00
2018-07-08T04:18:38.631Z,2360.00
2018-07-08T04:19:38.651Z,2384.00
2018-07-08T04:20:38.680Z,2404.00
2018-07-08T04:21:38.704Z,2432.00
2018-07-08T04:22:38.723Z,2448.00
2018-07-08T04:23:38.747Z,2472.00
2018-07-08T04:24:38.770Z,2492.00
2018-07-08T04:25:38.797Z,2520.00
2018-07-08T04:26:38.820Z,2536.00
2018-07-08T04:27:38.850Z,2556.00
2018-07-08T04:28:38.869Z,2576.00
2018-07-08T04:29:38.891Z,2600.00
2018-07-08T04:30:38.909Z,2620.00
2018-07-08T04:31:38.940Z,2640.00
2018-07-08T04:32:38.964Z,2664.00
2018-07-08T04:33:38.982Z,2684.00
2018-07-08T04:34:39.010Z,2704.00
2018-07-08T04:35:39.035Z,2716.00
2018-07-08T04:36:39.055Z,2740.00
2018-07-08T04:37:39.082Z,2756.00
2018-07-08T04:38:39.105Z,2776.00
2018-07-08T04:39:39.140Z,2792.00
2018-07-08T04:40:39.155Z,2812.00
2018-07-08T04:41:39.176Z,2832.00
2018-07-08T04:42:39.196Z,2848.00
2018-07-08T04:43:39.225Z,2860.00
2018-07-08T04:44:39.247Z,2880.00
2018-07-08T04:45:39.278Z,2896.00
2018-07-08T04:46:39.293Z,2912.00
2018-07-08T04:47:39.315Z,2924.00
2018-07-08T04:48:39.347Z,2948.00
2018-07-08T04:49:39.371Z,2956.00
2018-07-08T04:50:39.389Z,2968.00
2018-07-08T04:51:39.419Z,2988.00
2018-07-08T04:52:39.437Z,2996.00
2018-07-08T04:53:39.462Z,3012.00
2018-07-08T04:54:39.485Z,3036.00
2018-07-08T04:55:39.517Z,3040.00
2018-07-08T04:56:39.531Z,3052.00
2018-07-08T04:57:39.558Z,3068.00
2018-07-08T04:58:39.583Z,3080.00
2018-07-08T04:59:39.605Z,3096.00
2018-07-08T05:00:39.625Z,3096.00
2018-07-08T05:01:39.649Z,3124.00
2018-07-08T05:02:39.677Z,3140.00
2018-07-08T05:03:39.726Z,3148.00
2018-07-08T05:04:39.728Z,3172.00
2018-07-08T05:05:39.745Z,3180.00
2018-07-08T05:06:39.773Z,3196.00
2018-07-08T05:07:39.791Z,3208.00
2018-07-08T05:08:39.829Z,3216.00
2018-07-08T05:09:39.837Z,3224.00
2018-07-08T05:10:39.866Z,3240.00
2018-07-08T05:11:39.898Z,3252.00
2018-07-08T05:12:39.915Z,3260.00
2018-07-08T05:13:39.939Z,3276.00
2018-07-08T05:14:39.965Z,3284.00
2018-07-08T05:15:39.987Z,3288.00
2018-07-08T05:16:40.014Z,3300.00
2018-07-08T05:17:40.035Z,3304.00
2018-07-08T05:18:40.057Z,3296.00
2018-07-08T05:19:40.085Z,3300.00
2018-07-08T05:20:40.105Z,3328.00
2018-07-08T05:21:40.129Z,3332.00
2018-07-08T05:22:40.160Z,3360.00
2018-07-08T05:23:40.174Z,3380.00
2018-07-08T05:24:40.199Z,3396.00
2018-07-08T05:25:40.227Z,3408.00
2018-07-08T05:26:40.250Z,3420.00
2018-07-08T05:27:40.274Z,3424.00
2018-07-08T05:28:40.297Z,3428.00
2018-07-08T05:29:40.328Z,3428.00
2018-07-08T05:30:40.344Z,3404.00
2018-07-08T05:31:40.377Z,3404.00
2018-07-08T05:32:40.391Z,3420.00
2018-07-08T05:33:40.413Z,3456.00
2018-07-08T05:34:40.443Z,3488.00
2018-07-08T05:35:40.519Z,3496.00
2018-07-08T05:36:40.493Z,3508.00
2018-07-08T05:37:40.513Z,3520.00
2018-07-08T05:38:40.539Z,3520.00
2018-07-08T05:39:40.563Z,3532.00
2018-07-08T05:40:40.590Z,3540.00
2018-07-08T05:41:40.609Z,3548.00
2018-07-08T05:42:40.633Z,3560.00
2018-07-08T05:43:40.660Z,3564.00
2018-07-08T05:44:40.679Z,3580.00
2018-07-08T05:45:40.715Z,3584.00
2018-07-08T05:46:40.729Z,3596.00
2018-07-08T05:47:40.757Z,3612.00
2018-07-08T05:48:40.783Z,3616.00
2018-07-08T05:49:40.804Z,3624.00
2018-07-08T05:50:40.903Z,3624.00
2018-07-08T05:51:40.855Z,3636.00
2018-07-08T05:52:40.877Z,3660.00
2018-07-08T05:53:40.897Z,3672.00
2018-07-08T05:54:40.929Z,3684.00
2018-07-08T05:55:40.953Z,3696.00
2018-07-08T05:56:40.971Z,3696.00
2018-07-08T05:57:40.994Z,3704.00
2018-07-08T05:58:41.020Z,3712.00
2018-07-08T05:59:41.044Z,3720.00
2018-07-08T06:00:41.069Z,3732.00
2018-07-08T06:01:41.089Z,3744.00
2018-07-08T06:02:41.113Z,3760.00
2018-07-08T06:03:41.146Z,3776.00
2018-07-08T06:04:41.214Z,3776.00
2018-07-08T06:05:41.188Z,3784.00
2018-07-08T06:06:41.213Z,3804.00
2018-07-08T06:07:41.233Z,3800.00
2018-07-08T06:08:41.257Z,3808.00
2018-07-08T06:09:41.287Z,3812.00
2018-07-08T06:10:41.315Z,3820.00
2018-07-08T06:11:41.333Z,3828.00
2018-07-08T06:12:41.355Z,3832.00
2018-07-08T06:13:41.375Z,3840.00
2018-07-08T06:14:41.401Z,3840.00
2018-07-08T06:15:41.439Z,3848.00
2018-07-08T06:16:41.450Z,3860.00
2018-07-08T06:17:41.477Z,3864.00
2018-07-08T06:18:41.505Z,3868.00
2018-07-08T06:19:41.530Z,3876.00
2018-07-08T06:20:41.552Z,3876.00
2018-07-08T06:21:41.576Z,3888.00
2018-07-08T06:22:41.599Z,3892.00
2018-07-08T06:23:41.623Z,3888.00
2018-07-08T06:24:41.650Z,3892.00
2018-07-08T06:25:41.673Z,3900.00
2018-07-08T06:26:41.696Z,3904.00
2018-07-08T06:27:41.722Z,3912.00
2018-07-08T06:28:41.746Z,3912.00
2018-07-08T06:29:41.768Z,3924.00
2018-07-08T06:30:41.793Z,3932.00
2018-07-08T06:31:41.875Z,3940.00
2018-07-08T06:32:41.849Z,3944.00
2018-07-08T06:33:41.867Z,3948.00
2018-07-08T06:34:41.895Z,3944.00
2018-07-08T06:35:41.918Z,3952.00
2018-07-08T06:36:41.936Z,3952.00
2018-07-08T06:37:41.967Z,3956.00
2018-07-08T06:38:41.989Z,3960.00
2018-07-08T06:39:42.015Z,3968.00
2018-07-08T06:40:42.037Z,3964.00
2018-07-08T06:41:42.067Z,3968.00
2018-07-08T06:42:42.089Z,3972.00
2018-07-08T06:43:42.117Z,3976.00
2018-07-08T06:44:42.135Z,3972.00
2018-07-08T06:45:42.159Z,3968.00
2018-07-08T06:46:42.189Z,3976.00
2018-07-08T06:47:42.205Z,3988.00
2018-07-08T06:48:42.232Z,3996.00
2018-07-08T06:49:42.257Z,3996.00
2018-07-08T06:50:42.285Z,4004.00
2018-07-08T06:51:42.354Z,4004.00
2018-07-08T06:52:42.332Z,4004.00
2018-07-08T06:53:42.353Z,4008.00
2018-07-08T06:54:42.382Z,4008.00
2018-07-08T06:55:42.406Z,4008.00
2018-07-08T06:56:42.431Z,4016.00
2018-07-08T06:57:42.453Z,4012.00
2018-07-08T06:58:42.484Z,4028.00
2018-07-08T06:59:42.514Z,4024.00
2018-07-08T07:00:42.527Z,4028.00
2018-07-08T07:01:42.551Z,4028.00
2018-07-08T07:02:42.584Z,4036.00
2018-07-08T07:03:42.601Z,4040.00
2018-07-08T07:04:42.626Z,4044.00
2018-07-08T07:05:42.652Z,4044.00
2018-07-08T07:06:42.683Z,4048.00
2018-07-08T07:07:42.701Z,4048.00
2018-07-08T07:08:42.727Z,4052.00
2018-07-08T07:09:42.744Z,4060.00
2018-07-08T07:10:42.772Z,4064.00
2018-07-08T07:11:42.804Z,4068.00
2018-07-08T07:12:42.827Z,4068.00
2018-07-08T07:13:42.848Z,4076.00
2018-07-08T07:14:42.872Z,4072.00
2018-07-08T07:15:42.896Z,4068.00
2018-07-08T07:16:42.921Z,4084.00
2018-07-08T07:17:42.947Z,4092.00
2018-07-08T07:18:42.970Z,4088.00
2018-07-08T07:19:42.995Z,4088.00
2018-07-08T07:20:43.023Z,4096.00
2018-07-08T07:21:43.043Z,4100.00
2018-07-08T07:22:43.069Z,4104.00
2018-07-08T07:23:43.103Z,4112.00
2018-07-08T07:24:43.125Z,4116.00
2018-07-08T07:25:43.146Z,4128.00
2018-07-08T07:26:43.167Z,4132.00
2018-07-08T07:27:43.198Z,4144.00
2018-07-08T07:28:43.217Z,4148.00
2018-07-08T07:29:43.239Z,4152.00
2018-07-08T07:30:43.274Z,4160.00
2018-07-08T07:31:43.294Z,4164.00
2018-07-08T07:32:43.325Z,4172.00
2018-07-08T07:33:43.338Z,4172.00
2018-07-08T07:34:43.367Z,4176.00
2018-07-08T07:35:43.392Z,4180.00
2018-07-08T07:36:43.414Z,4180.00
2018-07-08T07:37:43.439Z,4184.00
2018-07-08T07:38:43.468Z,4180.00
2018-07-08T07:39:43.494Z,4188.00
2018-07-08T07:40:43.517Z,4192.00
2018-07-08T07:41:43.538Z,4200.00
2018-07-08T07:42:43.564Z,4204.00
2018-07-08T07:43:43.589Z,4208.00
2018-07-08T07:44:43.615Z,4208.00
2018-07-08T07:45:43.640Z,4212.00
2018-07-08T07:46:43.663Z,4208.00
2018-07-08T07:47:43.693Z,4208.00
2018-07-08T07:48:43.714Z,4212.00
2018-07-08T07:49:43.744Z,4220.00
2018-07-08T07:50:43.763Z,4224.00
2018-07-08T07:51:43.790Z,4224.00
2018-07-08T07:52:43.814Z,4228.00
2018-07-08T07:53:43.844Z,4232.00
2018-07-08T07:54:43.871Z,4236.00
2018-07-08T07:55:43.891Z,4232.00
2018-07-08T07:56:43.921Z,4232.00
2018-07-08T07:57:43.946Z,4236.00
2018-07-08T07:58:43.971Z,4240.00
2018-07-08T07:59:43.989Z,4240.00
2018-07-08T08:00:44.013Z,4248.00
2018-07-08T08:01:44.039Z,4248.00
2018-07-08T08:02:44.069Z,4252.00
2018-07-08T08:03:44.083Z,4256.00
2018-07-08T08:04:44.115Z,4260.00
2018-07-08T08:05:44.142Z,4268.00
2018-07-08T08:06:44.160Z,4276.00
2018-07-08T08:07:44.195Z,4280.00
2018-07-08T08:08:44.211Z,4288.00
2018-07-08T08:09:44.240Z,4288.00
2018-07-08T08:10:44.301Z,4300.00
2018-07-08T08:11:44.304Z,4300.00
2018-07-08T08:12:44.318Z,4308.00
2018-07-08T08:13:44.352Z,4312.00
2018-07-08T08:14:44.369Z,4320.00
2018-07-08T08:15:44.395Z,4332.00
2018-07-08T08:16:44.414Z,4336.00
2018-07-08T08:17:44.443Z,4352.00
2018-07-08T08:18:44.463Z,4420.00
2018-07-08T08:19:44.494Z,4372.00
2018-07-08T08:20:44.513Z,4384.00
2018-07-08T08:21:44.542Z,4392.00
2018-07-08T08:22:44.591Z,4400.00
2018-07-08T08:23:44.593Z,4416.00
2018-07-08T08:24:44.611Z,4424.00
2018-07-08T08:25:44.639Z,4440.00
2018-07-08T08:26:44.730Z,4448.00
2018-07-08T08:27:44.695Z,4468.00
2018-07-08T08:28:44.718Z,4476.00
2018-07-08T08:29:44.743Z,4488.00
2018-07-08T08:30:44.763Z,4496.00
2018-07-08T08:31:44.794Z,4500.00
2018-07-08T08:32:44.862Z,4504.00
2018-07-08T08:33:44.844Z,4520.00
2018-07-08T08:34:44.865Z,4524.00
2018-07-08T08:35:44.893Z,4536.00
2018-07-08T08:36:44.919Z,4532.00
2018-07-08T08:37:44.950Z,4540.00
2018-07-08T08:38:44.968Z,4544.00
2018-07-08T08:39:45.001Z,4552.00
2018-07-08T08:40:45.028Z,4564.00
2018-07-08T08:41:45.048Z,4584.00
2018-07-08T08:42:45.074Z,4592.00
2018-07-08T08:43:45.100Z,4596.00
2018-07-08T08:44:45.121Z,4604.00
2018-07-08T08:45:45.157Z,4600.00
2018-07-08T08:46:45.177Z,4608.00
2018-07-08T08:47:45.199Z,4608.00
2018-07-08T08:48:45.225Z,4620.00
2018-07-08T08:49:45.255Z,4640.00
2018-07-08T08:50:45.275Z,4648.00
2018-07-08T08:51:45.301Z,4652.00
2018-07-08T08:52:45.324Z,4656.00
2018-07-08T08:53:45.353Z,4664.00
2018-07-08T08:54:45.376Z,4672.00
2018-07-08T08:55:45.395Z,4676.00
2018-07-08T08:56:45.429Z,4688.00
2018-07-08T08:57:45.450Z,4696.00
2018-07-08T08:58:45.477Z,4712.00
2018-07-08T08:59:45.512Z,4708.00
2018-07-08T09:00:45.525Z,4708.00
2018-07-08T09:01:45.555Z,4712.00
2018-07-08T09:02:45.575Z,4720.00
2018-07-08T09:03:45.680Z,4728.00
2018-07-08T09:04:45.632Z,4744.00
2018-07-08T09:05:45.651Z,4760.00
2018-07-08T09:06:45.677Z,4768.00
2018-07-08T09:07:45.708Z,4788.00
2018-07-08T09:08:45.733Z,4796.00
2018-07-08T09:09:45.756Z,4812.00
2018-07-08T09:10:45.798Z,4832.00
2018-07-08T09:11:45.807Z,4840.00
2018-07-08T09:12:45.833Z,4872.00
2018-07-08T09:13:45.860Z,4884.00
2018-07-08T09:14:45.887Z,4900.00
2018-07-08T09:15:45.920Z,4920.00
2018-07-08T09:16:45.937Z,4932.00
2018-07-08T09:17:45.967Z,4952.00
2018-07-08T09:18:45.989Z,4980.00
2018-07-08T09:19:46.023Z,5000.00
2018-07-08T09:20:46.035Z,5012.00
2018-07-08T09:21:46.065Z,5028.00
2018-07-08T09:22:46.085Z,5052.00
2018-07-08T09:23:46.162Z,5084.00
2018-07-08T09:24:46.135Z,5108.00
2018-07-08T09:25:46.165Z,5120.00
2018-07-08T09:26:46.189Z,5128.00
2018-07-08T09:27:46.216Z,5140.00
2018-07-08T09:28:46.250Z,5168.00
2018-07-08T09:29:46.272Z,5196.00
2018-07-08T09:30:46.292Z,5232.00
2018-07-08T09:31:46.318Z,5236.00
2018-07-08T09:32:46.350Z,5264.00
2018-07-08T09:33:46.370Z,5296.00
2018-07-08T09:34:46.396Z,5308.00
2018-07-08T09:35:46.421Z,5332.00
2018-07-08T09:36:46.444Z,5360.00
2018-07-08T09:37:46.477Z,5376.00
2018-07-08T09:38:46.517Z,5424.00
2018-07-08T09:39:46.526Z,5420.00
2018-07-08T09:40:46.551Z,5452.00
2018-07-08T09:41:46.586Z,5480.00
2018-07-08T09:42:46.600Z,5516.00
2018-07-08T09:43:46.639Z,5556.00
2018-07-08T09:44:46.648Z,5600.00
2018-07-08T09:45:46.679Z,5620.00
2018-07-08T09:46:46.705Z,5828.00
2018-07-08T09:47:46.732Z,5688.00
2018-07-08T09:48:46.765Z,5720.00
2018-07-08T09:49:46.785Z,5740.00
2018-07-08T09:50:46.808Z,5760.00
2018-07-08T09:51:46.832Z,5764.00
2018-07-08T09:52:46.858Z,5800.00
2018-07-08T09:53:46.885Z,5828.00
2018-07-08T09:54:46.908Z,5836.00
2018-07-08T09:55:46.932Z,5864.00
2018-07-08T09:56:46.966Z,5868.00
2018-07-08T09:57:46.994Z,5900.00
2018-07-08T09:58:47.015Z,5936.00
2018-07-08T09:59:47.057Z,5936.00
2018-07-08T10:00:47.076Z,5996.00
2018-07-08T10:01:47.095Z,6036.00
2018-07-08T10:02:47.122Z,6076.00
2018-07-08T10:03:47.144Z,6124.00
2018-07-08T10:04:47.225Z,6152.00
2018-07-08T10:05:47.207Z,6212.00
2018-07-08T10:06:47.226Z,6260.00
2018-07-08T10:07:47.250Z,6296.00
2018-07-08T10:08:47.386Z,6356.00
2018-07-08T10:09:47.297Z,6388.00
2018-07-08T10:10:47.337Z,6436.00
2018-07-08T10:11:47.353Z,6412.00
2018-07-08T10:12:47.384Z,6460.00
2018-07-08T10:13:47.449Z,6524.00
2018-07-08T10:14:47.433Z,6552.00
2018-07-08T10:15:47.459Z,6712.00
2018-07-08T10:16:47.484Z,6916.00
2018-07-08T10:17:47.589Z,6948.00
2018-07-08T10:18:47.539Z,6932.00
2018-07-08T10:19:47.763Z,7092.00
2018-07-08T10:20:47.589Z,7524.00
2018-07-08T10:21:47.614Z,8024.00
2018-07-08T10:22:47.656Z,7744.00
2018-07-08T10:23:47.669Z,7440.00
2018-07-08T10:24:47.698Z,7488.00
2018-07-08T10:25:47.725Z,7348.00
2018-07-08T10:26:47.745Z,7432.00
2018-07-08T10:27:47.789Z,7592.00
2018-07-08T10:28:47.800Z,7928.00
2018-07-08T10:29:47.829Z,8828.00
2018-07-08T10:30:47.853Z,10596.00
2018-07-08T10:31:47.886Z,11552.00
2018-07-08T10:32:47.906Z,10836.00
2018-07-08T10:33:47.933Z,9924.00
2018-07-08T10:34:47.960Z,10096.00
2018-07-08T10:35:47.991Z,10812.00
2018-07-08T10:36:48.015Z,11372.00
2018-07-08T10:37:48.041Z,12444.00
2018-07-08T10:38:48.071Z,14284.00
2018-07-08T10:39:48.091Z,14784.00
2018-07-08T10:40:48.127Z,14028.00
2018-07-08T10:41:48.153Z,13572.00
2018-07-08T10:42:48.176Z,12596.00
2018-07-08T10:43:48.204Z,12680.00
2018-07-08T10:44:48.230Z,12396.00
2018-07-08T10:45:48.259Z,12736.00
2018-07-08T10:46:48.285Z,13172.00
2018-07-08T10:47:48.335Z,13932.00
2018-07-08T10:48:48.349Z,14680.00
2018-07-08T10:49:48.373Z,15208.00
2018-07-08T10:50:48.418Z,15316.00
2018-07-08T10:51:48.418Z,15964.00
2018-07-08T10:52:48.451Z,14716.00
2018-07-08T10:53:48.473Z,13952.00
2018-07-08T10:54:48.503Z,13168.00
2018-07-08T10:55:48.533Z,13920.00
2018-07-08T10:56:48.559Z,14676.00
2018-07-08T10:57:48.581Z,15436.00
2018-07-08T10:58:48.606Z,16928.00
2018-07-08T10:59:48.636Z,19808.00
2018-07-08T11:00:48.663Z,16552.00
2018-07-08T11:01:48.765Z,18592.00
2018-07-08T11:02:48.723Z,19360.00
2018-07-08T11:03:48.748Z,20512.00
2018-07-08T11:04:48.777Z,17508.00
2018-07-08T11:05:48.802Z,13244.00
2018-07-08T11:06:48.824Z,23552.00
2018-07-08T11:07:48.871Z,28416.00
2018-07-08T11:08:48.887Z,37120.00
2018-07-08T11:09:48.918Z,42080.00
2018-07-08T11:10:49.021Z,31808.00
2018-07-08T11:11:48.971Z,34400.00
2018-07-08T11:12:49.000Z,19904.00
2018-07-08T11:13:49.030Z,43456.00
2018-07-08T11:14:49.063Z,47680.00
2018-07-08T11:15:49.088Z,52384.00
2018-07-08T11:16:49.116Z,53344.00
2018-07-08T11:17:49.144Z,53152.00
2018-07-08T11:18:49.176Z,55168.00
2018-07-08T11:19:49.210Z,52736.00
2018-07-08T11:20:49.266Z,26848.00
2018-07-08T11:21:49.278Z,20640.00
2018-07-08T11:22:49.305Z,21376.00
2018-07-08T11:23:49.334Z,24032.00
2018-07-08T11:24:49.369Z,40288.00
2018-07-08T11:25:49.394Z,31104.00
2018-07-08T11:26:49.428Z,24224.00
2018-07-08T11:27:49.454Z,33280.00
2018-07-08T11:28:49.495Z,56608.00
2018-07-08T11:29:49.523Z,54848.00
2018-07-08T11:30:49.552Z,56512.00
2018-07-08T11:31:49.585Z,57952.00
2018-07-08T11:32:49.623Z,23168.00
2018-07-08T11:33:49.652Z,57472.00
2018-07-08T11:34:49.687Z,56672.00
2018-07-08T11:35:49.718Z,42432.00
2018-07-08T11:36:49.751Z,22720.00
2018-07-08T11:37:49.778Z,23136.00
2018-07-08T11:38:49.809Z,34208.00
2018-07-08T11:39:49.849Z,63264.00
2018-07-08T11:40:49.882Z,60896.00
2018-07-08T11:41:49.915Z,54496.00
2018-07-08T11:42:50.031Z,61600.00
2018-07-08T11:43:49.981Z,59712.00
2018-07-08T11:44:50.023Z,60224.00
2018-07-08T11:45:50.062Z,59744.00
2018-07-08T11:46:50.084Z,60512.00
2018-07-08T11:47:50.122Z,60064.00
2018-07-08T11:48:50.154Z,58784.00
2018-07-08T11:49:50.206Z,58496.00
2018-07-08T11:50:50.226Z,61152.00
2018-07-08T11:51:50.274Z,43360.00
2018-07-08T11:52:50.290Z,60256.00
2018-07-08T11:53:50.329Z,61984.00
2018-07-08T11:54:50.375Z,47968.00
2018-07-08T11:55:50.396Z,27872.00
2018-07-08T11:56:50.440Z,47872.00
2018-07-08T11:57:50.473Z,63040.00
2018-07-08T11:58:50.512Z,62432.00
2018-07-08T11:59:50.541Z,63264.00
2018-07-08T12:00:50.569Z,62560.00
2018-07-08T12:01:50.655Z,63680.00
2018-07-08T12:02:50.649Z,64352.00
2018-07-08T12:03:50.686Z,63360.00
2018-07-08T12:04:50.719Z,64608.00
2018-07-08T12:05:50.753Z,65696.00
2018-07-08T12:06:50.792Z,67008.00
2018-07-08T12:07:50.832Z,67712.00
2018-07-08T12:08:50.875Z,67456.00
2018-07-08T12:09:50.902Z,66368.00
2018-07-08T12:10:50.942Z,65120.00
2018-07-08T12:11:50.982Z,67296.00
2018-07-08T12:12:51.013Z,69216.00
2018-07-08T12:13:51.052Z,67808.00
2018-07-08T12:14:51.098Z,63808.00
2018-07-08T12:15:51.120Z,58176.00
2018-07-08T12:16:51.159Z,58368.00
2018-07-08T12:17:51.205Z,62176.00
2018-07-08T12:18:51.236Z,67904.00